Details From YMML - Melbourne Intl
To YMAV - Avalon
Flight Number -
Tags Generated
Created
Modified
Stats Distance 28 nm / 52 km
Max Altitude 0 ft / 0 m
Waypoints 2
Social Downloads 13
Likes 0
Share VATSIM

Download

Looking for another format? Having issues loading an existing format? Contact us
Advertisement - Login to hide

Notes

Generated

Route

YMML YMAV

ID Type Via Altitude Latitude Longitude Leg Dist Tot Dist Heading (true) Name
O YMML APT - 0 ft / 0 m -37.66220˚ 144.84819˚ - 0 nm - -
O YMAV APT - 0 ft / 0 m -38.02733˚ 144.46940˚ 28 nm 28 nm 219° / 219° -

Altitude Profile

Advertisement - Login to hide

YMML

Details ICAO YMML (MEL)
Name Melbourne Intl
Region Australia
Timezone Australia/Melbourne (UTC+11.0)
Stats Elevation 433 ft / 132 m (AMSL)
Location -37.665301° 144.836668°
Runways 2
Magnetic Variation 11.504° E

METAR

YMML 141000Z 17010KT 9999 FEW025 BKN270 17/11 Q1012 NOSIG

Decode

TAF

TAF YMML 140525Z 1406/1512 17015G25KT 9999 FEW030 SCT060 FM141000 17010KT 9999 SCT035 BECMG 1415/1417 17006KT 9999 BKN020 BECMG 1420/1422 18008KT CAVOK FM150500 17015G25KT CAVOK FM151000 18008KT CAVOK

Decode

Departure Runways

ID Width Length Bearing (true) Bearing (mag) Surface Threshold Offset Overrun Length
09 148 ft / 45 m 7,494 ft / 2,284 m 94.01° 82.51° Asphalt 0 ft / 0 m 0 ft / 0 m
16 148 ft / 45 m 12,008 ft / 3,660 m 171.02° 159.52° Asphalt 98 ft / 30 m 0 ft / 0 m
27 148 ft / 45 m 7,494 ft / 2,284 m 274.00° 262.50° Asphalt 0 ft / 0 m 0 ft / 0 m
34 148 ft / 45 m 12,008 ft / 3,660 m 351.01° 339.51° Asphalt 98 ft / 30 m 0 ft / 0 m

YMAV

Details ICAO YMAV (AVV)
Name Avalon
Region Australia
Timezone Australia/Melbourne (UTC+11.0)
Stats Elevation 35 ft / 11 m (AMSL)
Location -38.040844° 144.467132°
Runways 1
Magnetic Variation 11.473° E

METAR

YMAV 141000Z AUTO 16010KT 9999 // SCT056 17/11 Q1011 RF00.0/000.0

Decode

TAF

TAF YMAV 140532Z 1405/1506 17016G27KT 9999 FEW035 SCT060 BECMG 1410/1412 19008KT 9999 FEW040 FM141400 13005KT 9999 FEW020 FM141800 VRB05KT 9999 BKN025 BECMG 1418/1420 11012KT CAVOK FM150500 17017G28KT CAVOK

Decode

Destination Runways

ID Width Length Bearing (true) Bearing (mag) Surface Threshold Offset Overrun Length
18 148 ft / 45 m 10,010 ft / 3,051 m 187.50° 176.03° Asphalt 0 ft / 0 m 797 ft / 243 m
36 148 ft / 45 m 10,010 ft / 3,051 m 7.50° 356.03° Asphalt 0 ft / 0 m 1,010 ft / 308 m

Approach Navaids

Runway Type Ident Frequency Range Bearing (true) Bearing (mag) Slope Elevation
18 Localiser IAV 109.50 MHz 18 nm / 33 km 187.62° 176.15° - 32 ft / 10 m (AMSL)
18 Glidescope IAV 109.50 MHz 10 nm / 19 km 187.50° 176.03° 3.00° 35 ft / 11 m (AMSL)
18 DME IAV 109.50 MHz 18 nm / 33 km - - - 35 ft / 11 m (AMSL)

Popular Alternatives